Dades meteomassalio
Diari Summary for Febrer 10, 2017 Units:  Metric    English   Both
« Previous Day
Next Day »
Diari Semanal Mensual Anual Personalitzat
  Maxima: Minima: Mijana:
Temperatura: 13.2 °C -0.9 °C 5.4 °C
Rosada: 6.1 °C -2.2 °C 1.8 °C
Humitat: 91 % 52 % 79 %
Velocitat del vent: 24.1 km/h 0.0 km/h 3.4 km/h
Racha vent: 24.1 km/h - -
Vent:- - SE
Pressio: 1018.2 hPa 1014.8 hPa -
Pluja: 0.0 mm    
Historical Graphs
 
 
Tabular Data for Febrer 10, 2017
Time Temperature Dew Point Pressure Wind Wind Speed Wind Gust Humidity Rainfall Rate (Hourly) solar Conditions
00:00 3.1 °C 0.4 °C 1016.5 hPa Calm     83 % 0.0 mm 0.0 W/m2 CLR
00:05 3.0 °C 0.4 °C 1016.5 hPa Calm     83 % 0.0 mm 0.0 W/m2 CLR
00:10 2.9 °C 0.4 °C 1016.5 hPa Calm     84 % 0.0 mm 0.0 W/m2 CLR
00:15 2.8 °C 0.4 °C 1016.5 hPa Calm     84 % 0.0 mm 0.0 W/m2 CLR
00:20 2.7 °C 0.3 °C 1016.5 hPa Calm     84 % 0.0 mm 0.0 W/m2 CLR
00:25 2.6 °C 0.3 °C 1016.5 hPa Calm     85 % 0.0 mm 0.0 W/m2 CLR
00:30 2.5 °C 0.2 °C 1016.5 hPa Calm     85 % 0.0 mm 0.0 W/m2 CLR
00:35 2.4 °C 0.1 °C 1016.5 hPa Calm     85 % 0.0 mm 0.0 W/m2 CLR
00:40 2.3 °C 0.2 °C 1016.5 hPa Calm     86 % 0.0 mm 0.0 W/m2 CLR
00:45 2.2 °C 0.1 °C 1016.5 hPa Calm     86 % 0.0 mm 0.0 W/m2 CLR
00:50 2.1 °C 0.0 °C 1016.5 hPa Calm     86 % 0.0 mm 0.0 W/m2 CLR
00:55 2.0 °C -0.1 °C 1016.5 hPa Calm     86 % 0.0 mm 0.0 W/m2 CLR
01:00 1.9 °C -0.1 °C 1016.1 hPa Calm     87 % 0.0 mm 0.0 W/m2 CLR
01:05 1.8 °C -0.2 °C 1016.1 hPa Calm     87 % 0.0 mm 0.0 W/m2 CLR
01:10 1.7 °C -0.2 °C 1016.1 hPa Calm     87 % 0.0 mm 0.0 W/m2 CLR
01:15 1.6 °C -0.3 °C 1016.1 hPa Calm     87 % 0.0 mm 0.0 W/m2 CLR
01:21 1.6 °C -0.2 °C 1016.1 hPa Calm     88 % 0.0 mm 0.0 W/m2 CLR
01:26 1.6 °C -0.2 °C 1016.1 hPa Calm     88 % 0.0 mm 0.0 W/m2 CLR
01:31 1.4 °C -0.3 °C 1015.8 hPa Calm     88 % 0.0 mm 0.0 W/m2 CLR
01:36 1.4 °C -0.4 °C 1015.8 hPa Calm     88 % 0.0 mm 0.0 W/m2 CLR
01:41 1.3 °C -0.3 °C 1015.8 hPa Calm     89 % 0.0 mm 0.0 W/m2 CLR
01:46 1.4 °C -0.2 °C 1015.8 hPa Calm     89 % 0.0 mm 0.0 W/m2 CLR
01:51 1.4 °C -0.2 °C 1015.8 hPa Calm     89 % 0.0 mm 0.0 W/m2 CLR
01:56 1.4 °C -0.2 °C 1015.8 hPa Calm     89 % 0.0 mm 0.0 W/m2 CLR
02:01 1.3 °C -0.3 °C 1015.8 hPa Calm     89 % 0.0 mm 0.0 W/m2 CLR
02:06 1.3 °C -0.3 °C 1015.8 hPa Calm     89 % 0.0 mm 0.0 W/m2 CLR
02:11 1.3 °C -0.3 °C 1015.8 hPa Calm     89 % 0.0 mm 0.0 W/m2 CLR
02:16 1.3 °C -0.3 °C 1015.8 hPa Calm     89 % 0.0 mm 0.0 W/m2 CLR
02:21 1.3 °C -0.3 °C 1015.8 hPa Calm     89 % 0.0 mm 0.0 W/m2 CLR
02:26 1.3 °C -0.1 °C 1015.8 hPa Calm     90 % 0.0 mm 0.0 W/m2 CLR
02:31 1.3 °C -0.3 °C 1015.8 hPa Calm     89 % 0.0 mm 0.0 W/m2 CLR
02:41 1.2 °C -0.4 °C 1015.8 hPa Calm     89 % 0.0 mm 0.0 W/m2 CLR
02:46 1.2 °C -0.4 °C 1015.8 hPa Calm     89 % 0.0 mm 0.0 W/m2 CLR
02:49 1.2 °C -0.4 °C 1016.1 hPa Calm     89 % 0.0 mm 0.0 W/m2 CLR
02:54 1.1 °C -0.5 °C 1016.1 hPa Calm     89 % 0.0 mm 0.0 W/m2 CLR
02:59 1.1 °C -0.3 °C 1016.1 hPa Calm     90 % 0.0 mm 0.0 W/m2 CLR
03:04 1.1 °C -0.4 °C 1016.1 hPa Calm     90 % 0.0 mm 0.0 W/m2 CLR
03:09 1.1 °C -0.4 °C 1016.1 hPa Calm     90 % 0.0 mm 0.0 W/m2 CLR
03:12 1.1 °C -0.3 °C 1016.1 hPa Calm     90 % 0.0 mm 0.0 W/m2 CLR
03:17 1.1 °C -0.3 °C 1016.1 hPa Calm     90 % 0.0 mm 0.0 W/m2 CLR
03:22 1.2 °C -0.4 °C 1016.1 hPa Calm     89 % 0.0 mm 0.0 W/m2 CLR
03:27 1.1 °C -0.6 °C 1015.8 hPa Calm     89 % 0.0 mm 0.0 W/m2 CLR
03:32 0.9 °C -0.7 °C 1015.8 hPa Calm     89 % 0.0 mm 0.0 W/m2 CLR
03:37 0.8 °C -0.8 °C 1015.8 hPa Calm     89 % 0.0 mm 0.0 W/m2 CLR
03:38 0.8 °C -0.8 °C 1015.8 hPa Calm     89 % 0.0 mm 0.0 W/m2 CLR
03:43 0.6 °C -1.1 °C 1015.8 hPa Calm     89 % 0.0 mm 0.0 W/m2 CLR
03:48 0.6 °C -0.9 °C 1015.8 hPa Calm     90 % 0.0 mm 0.0 W/m2 CLR
03:53 0.6 °C -0.9 °C 1015.8 hPa Calm     90 % 0.0 mm 0.0 W/m2 CLR
03:58 0.5 °C -0.9 °C 1015.8 hPa Calm     90 % 0.0 mm 0.0 W/m2 CLR
04:03 0.4 °C -1.0 °C 1015.8 hPa Calm     90 % 0.0 mm 0.0 W/m2 CLR
04:08 0.4 °C -1.1 °C 1015.8 hPa Calm     90 % 0.0 mm 0.0 W/m2 CLR
04:13 0.2 °C -1.4 °C 1015.8 hPa Calm     89 % 0.0 mm 0.0 W/m2 CLR
04:18 0.1 °C -1.3 °C 1015.5 hPa Calm     90 % 0.0 mm 0.0 W/m2 CLR
04:23 0.1 °C -1.3 °C 1015.5 hPa Calm     90 % 0.0 mm 0.0 W/m2 CLR
04:28 -0.1 °C -1.5 °C 1015.8 hPa Calm     90 % 0.0 mm 0.0 W/m2 CLR
04:33 -0.2 °C -1.7 °C 1015.8 hPa Calm     90 % 0.0 mm 0.0 W/m2 CLR
04:38 -0.2 °C -1.6 °C 1015.5 hPa Calm     90 % 0.0 mm 0.0 W/m2 CLR
04:43 -0.2 °C -1.7 °C 1015.8 hPa Calm     90 % 0.0 mm 0.0 W/m2 CLR
04:48 -0.3 °C -1.7 °C 1015.5 hPa Calm     90 % 0.0 mm 0.0 W/m2 CLR
04:53 -0.4 °C -1.8 °C 1015.8 hPa Calm     90 % 0.0 mm 0.0 W/m2 CLR
04:58 -0.4 °C -1.9 °C 1015.8 hPa Calm     90 % 0.0 mm 0.0 W/m2 CLR
05:03 -0.6 °C -2.0 °C 1015.5 hPa Calm     90 % 0.0 mm 0.0 W/m2 CLR
05:08 -0.6 °C -2.1 °C 1015.5 hPa Calm     90 % 0.0 mm 0.0 W/m2 CLR
05:13 -0.6 °C -2.1 °C 1015.5 hPa Calm     90 % 0.0 mm 0.0 W/m2 CLR
05:18 -0.7 °C -1.9 °C 1015.5 hPa Calm     91 % 0.0 mm 0.0 W/m2 CLR
05:23 -0.8 °C -2.1 °C 1015.5 hPa Calm     91 % 0.0 mm 0.0 W/m2 CLR
05:28 -0.8 °C -2.1 °C 1015.5 hPa Calm     91 % 0.0 mm 0.0 W/m2 CLR
05:33 -0.8 °C -2.1 °C 1015.5 hPa Calm     91 % 0.0 mm 0.0 W/m2 CLR
05:38 -0.8 °C -2.1 °C 1015.5 hPa Calm     91 % 0.0 mm 0.0 W/m2 CLR
05:43 -0.9 °C -2.2 °C 1015.5 hPa Calm     91 % 0.0 mm 0.0 W/m2 CLR
05:48 -0.9 °C -2.2 °C 1015.5 hPa Calm     91 % 0.0 mm 0.0 W/m2 CLR
05:53 -0.9 °C -2.2 °C 1015.5 hPa Calm     91 % 0.0 mm 0.0 W/m2 CLR
05:58 -0.9 °C -2.2 °C 1015.5 hPa Calm     91 % 0.0 mm 0.0 W/m2 CLR
06:03 -0.8 °C -2.1 °C 1015.1 hPa Calm     91 % 0.0 mm 0.0 W/m2 CLR
06:08 -0.8 °C -2.1 °C 1015.1 hPa Calm     91 % 0.0 mm 0.0 W/m2 CLR
06:13 -0.8 °C -2.1 °C 1015.1 hPa Calm     91 % 0.0 mm 0.0 W/m2 CLR
06:18 -0.8 °C -2.1 °C 1015.1 hPa Calm     91 % 0.0 mm 0.0 W/m2 CLR
06:23 -0.7 °C -1.9 °C 1015.1 hPa Calm     91 % 0.0 mm 0.0 W/m2 CLR
06:28 -0.6 °C -1.9 °C 1015.1 hPa Calm     91 % 0.0 mm 0.0 W/m2 CLR
06:33 -0.6 °C -1.9 °C 1015.1 hPa Calm     91 % 0.0 mm 0.0 W/m2 CLR
06:38 -0.6 °C -1.8 °C 1015.1 hPa Calm     91 % 0.0 mm 0.0 W/m2 CLR
06:43 -0.6 °C -1.9 °C 1015.1 hPa Calm     91 % 0.0 mm 0.0 W/m2 CLR
06:48 -0.6 °C -1.9 °C 1015.5 hPa Calm     91 % 0.0 mm 0.0 W/m2 CLR
06:53 -0.6 °C -1.8 °C 1015.5 hPa Calm     91 % 0.0 mm 0.0 W/m2 CLR
06:58 -0.6 °C -1.8 °C 1015.5 hPa Calm     91 % 0.0 mm 0.0 W/m2 CLR
07:03 -0.6 °C -1.8 °C 1015.5 hPa Calm     91 % 0.0 mm 0.0 W/m2 CLR
07:09 -0.5 °C -1.8 °C 1015.5 hPa Calm     91 % 0.0 mm 0.0 W/m2 CLR
07:14 -0.6 °C -2.0 °C 1015.5 hPa Calm     90 % 0.0 mm 0.0 W/m2 CLR
07:19 -0.6 °C -1.9 °C 1015.5 hPa Calm     91 % 0.0 mm 0.0 W/m2 CLR
07:24 -0.6 °C -1.8 °C 1015.5 hPa Calm     91 % 0.0 mm 0.0 W/m2 CLR
07:29 -0.5 °C -1.9 °C 1015.5 hPa Calm     90 % 0.0 mm 0.0 W/m2 CLR
07:34 -0.5 °C -1.9 °C 1015.5 hPa Calm     90 % 0.0 mm 0.0 W/m2 CLR
07:39 -0.5 °C -1.9 °C 1015.5 hPa Calm     90 % 0.0 mm 0.0 W/m2 CLR
07:44 -0.4 °C -1.9 °C 1015.8 hPa Calm     90 % 0.0 mm 0.0 W/m2 CLR
07:49 -0.4 °C -1.9 °C 1015.8 hPa Calm     90 % 0.0 mm 0.0 W/m2 CLR
07:54 -0.4 °C -1.9 °C 1015.8 hPa Calm     90 % 0.0 mm 0.0 W/m2 CLR
07:59 -0.5 °C -1.9 °C 1015.8 hPa Calm     90 % 0.0 mm 0.0 W/m2 CLR
08:04 -0.6 °C -2.1 °C 1016.1 hPa Calm     90 % 0.0 mm 5.0 W/m2 OVC
08:09 -0.7 °C -2.1 °C 1016.1 hPa Calm     90 % 0.0 mm 5.0 W/m2 OVC
08:14 -0.7 °C -2.1 °C 1016.1 hPa Calm     90 % 0.0 mm 9.0 W/m2 BKN
08:19 -0.7 °C -2.2 °C 1016.1 hPa Calm     90 % 0.0 mm 12.0 W/m2 BKN
08:24 -0.7 °C -2.2 °C 1016.1 hPa Calm     90 % 0.0 mm 18.0 W/m2 BKN
08:28 -0.7 °C -2.2 °C 1016.5 hPa Calm     90 % 0.0 mm 21.0 W/m2 BKN
08:33 -0.7 °C -1.9 °C 1016.5 hPa Calm     91 % 0.0 mm 28.0 W/m2 BKN
08:38 -0.7 °C -1.9 °C 1016.5 hPa Calm     91 % 0.0 mm 35.0 W/m2 BKN
08:43 -0.6 °C -1.9 °C 1016.5 hPa Calm     91 % 0.0 mm 44.0 W/m2 BKN
08:48 -0.6 °C -1.8 °C 1016.5 hPa Calm     91 % 0.0 mm 51.0 W/m2 SCT
08:53 -0.4 °C -1.7 °C 1016.5 hPa Calm     91 % 0.0 mm 62.0 W/m2 SCT
08:58 -0.3 °C -1.6 °C 1016.5 hPa Calm     91 % 0.0 mm 79.0 W/m2 FEW
09:03 -0.2 °C -1.5 °C 1016.5 hPa Calm     91 % 0.0 mm 91.0 W/m2 FEW
09:08 0.0 °C -1.3 °C 1016.5 hPa Calm     91 % 0.0 mm 84.0 W/m2 CLR
09:13 0.1 °C -1.2 °C 1016.5 hPa Calm     91 % 0.0 mm 93.0 W/m2 CLR
09:18 0.2 °C -1.1 °C 1016.5 hPa Calm     91 % 0.0 mm 98.0 W/m2 CLR
09:23 0.4 °C -0.9 °C 1016.5 hPa Calm     91 % 0.0 mm 111.0 W/m2 CLR
09:28 0.6 °C -0.9 °C 1016.5 hPa Calm     90 % 0.0 mm 118.0 W/m2 CLR
09:33 0.8 °C -0.7 °C 1016.5 hPa Calm     90 % 0.0 mm 128.0 W/m2 CLR
09:39 1.0 °C -0.4 °C 1016.5 hPa Calm     90 % 0.0 mm 144.0 W/m2 CLR
09:44 1.2 °C -0.2 °C 1016.5 hPa Calm     90 % 0.0 mm 171.0 W/m2 CLR
09:49 1.4 °C 0.0 °C 1016.5 hPa Calm     90 % 0.0 mm 223.0 W/m2 CLR
09:54 1.7 °C 0.1 °C 1016.5 hPa Calm     89 % 0.0 mm 287.0 W/m2 CLR
09:59 2.1 °C 0.7 °C 1016.5 hPa Calm     90 % 0.0 mm 288.0 W/m2 CLR
10:04 2.8 °C 1.2 °C 1016.5 hPa Calm     89 % 0.0 mm 274.0 W/m2 CLR
10:09 3.3 °C 1.3 °C 1016.5 hPa Calm     87 % 0.0 mm 346.0 W/m2 CLR
10:14 3.7 °C 1.6 °C 1016.5 hPa Calm     86 % 0.0 mm 318.0 W/m2 CLR
10:19 4.1 °C 1.8 °C 1016.8 hPa Calm     85 % 0.0 mm 264.0 W/m2 CLR
10:24 4.6 °C 2.1 °C 1016.8 hPa Calm     84 % 0.0 mm 253.0 W/m2 CLR
10:29 4.9 °C 2.1 °C 1016.8 hPa Calm     82 % 0.0 mm 267.0 W/m2 CLR
10:34 5.3 °C 2.4 °C 1016.8 hPa Calm     82 % 0.0 mm 353.0 W/m2 CLR
10:39 5.9 °C 2.9 °C 1016.8 hPa Calm     81 % 0.0 mm 309.0 W/m2 CLR
10:44 6.3 °C 3.1 °C 1016.8 hPa Calm     80 % 0.0 mm 338.0 W/m2 CLR
10:49 6.8 °C 3.4 °C 1016.8 hPa Calm     79 % 0.0 mm 387.0 W/m2 CLR
10:54 7.4 °C 3.8 °C 1016.8 hPa Calm     78 % 0.0 mm 469.0 W/m2 CLR
10:59 8.1 °C 4.3 °C 1016.8 hPa Calm     77 % 0.0 mm 406.0 W/m2 CLR
11:04 8.6 °C 4.4 °C 1016.8 hPa Calm     75 % 0.0 mm 413.0 W/m2 CLR
11:09 9.1 °C 4.8 °C 1016.8 hPa Calm     75 % 0.0 mm 348.0 W/m2 CLR
11:14 9.6 °C 5.2 °C 1016.8 hPa Calm     74 % 0.0 mm 403.0 W/m2 CLR
11:19 9.9 °C 5.3 °C 1016.8 hPa Calm     73 % 0.0 mm 415.0 W/m2 CLR
11:24 10.2 °C 5.3 °C 1016.8 hPa Calm     72 % 0.0 mm 366.0 W/m2 CLR
11:29 10.4 °C 5.4 °C 1016.8 hPa Calm     71 % 0.0 mm 350.0 W/m2 CLR
11:34 10.7 °C 5.4 °C 1016.8 hPa Calm     70 % 0.0 mm 399.0 W/m2 CLR
11:39 10.8 °C 5.6 °C 1016.8 hPa Calm     70 % 0.0 mm 445.0 W/m2 CLR
11:44 11.1 °C 5.8 °C 1016.8 hPa Calm     70 % 0.0 mm 469.0 W/m2 CLR
11:49 11.4 °C 5.5 °C 1016.8 hPa Calm     67 % 0.0 mm 410.0 W/m2 CLR
11:54 11.6 °C 5.4 °C 1016.8 hPa Calm     66 % 0.0 mm 352.0 W/m2 CLR
11:59 11.7 °C 5.5 °C 1016.8 hPa Calm     66 % 0.0 mm 413.0 W/m2 CLR
12:04 11.9 °C 5.5 °C 1016.8 hPa Calm     65 % 0.0 mm 568.0 W/m2 CLR
12:09 12.3 °C 5.4 °C 1016.5 hPa ENE 8.0 km/h 8.0 km/h 63 % 0.0 mm 490.0 W/m2 CLR
12:14 12.3 °C 5.2 °C 1016.5 hPa East 9.7 km/h 9.7 km/h 62 % 0.0 mm 526.0 W/m2 CLR
12:19 12.3 °C 4.7 °C 1016.5 hPa East 3.7 km/h 3.7 km/h 60 % 0.0 mm 584.0 W/m2 CLR
12:24 12.4 °C 4.9 °C 1016.1 hPa East 5.6 km/h 5.6 km/h 60 % 0.0 mm 503.0 W/m2 CLR
12:29 12.4 °C 4.7 °C 1016.1 hPa East 5.6 km/h 5.6 km/h 59 % 0.0 mm 457.0 W/m2 CLR
12:34 12.6 °C 4.3 °C 1016.1 hPa SE 7.4 km/h 7.4 km/h 57 % 0.0 mm 492.0 W/m2 CLR
12:39 12.6 °C 3.8 °C 1016.1 hPa SSE 13.0 km/h 13.0 km/h 55 % 0.0 mm 431.0 W/m2 CLR
12:44 12.6 °C 3.7 °C 1016.1 hPa SSE 22.2 km/h 22.2 km/h 55 % 0.0 mm 443.0 W/m2 CLR
12:49 12.6 °C 4.3 °C 1016.1 hPa SSE 13.0 km/h 13.0 km/h 57 % 0.0 mm 480.0 W/m2 CLR
12:54 12.5 °C 4.2 °C 1016.1 hPa SSE 11.3 km/h 11.3 km/h 57 % 0.0 mm 496.0 W/m2 CLR
12:59 12.7 °C 4.4 °C 1016.1 hPa SSE 16.7 km/h 16.7 km/h 57 % 0.0 mm 534.0 W/m2 CLR
13:04 12.7 °C 4.2 °C 1016.1 hPa SSE 19.3 km/h 19.3 km/h 56 % 0.0 mm 577.0 W/m2 CLR
13:09 12.8 °C 4.4 °C 1016.1 hPa South 5.6 km/h 5.6 km/h 57 % 0.0 mm 506.0 W/m2 CLR
13:14 13.1 °C 4.4 °C 1016.1 hPa South 16.7 km/h 16.7 km/h 56 % 0.0 mm 522.0 W/m2 CLR
13:19 13.0 °C 4.2 °C 1015.8 hPa South 20.4 km/h 20.4 km/h 55 % 0.0 mm 485.0 W/m2 CLR
13:24 12.9 °C 4.3 °C 1015.8 hPa South 13.0 km/h 13.0 km/h 56 % 0.0 mm 517.0 W/m2 CLR
13:29 13.0 °C 4.2 °C 1015.8 hPa South 11.1 km/h 11.1 km/h 55 % 0.0 mm 536.0 W/m2 CLR
13:34 12.9 °C 4.1 °C 1015.8 hPa South 11.1 km/h 11.1 km/h 55 % 0.0 mm 489.0 W/m2 CLR
13:39 13.1 °C 4.2 °C 1015.8 hPa SSE 16.7 km/h 16.7 km/h 55 % 0.0 mm 512.0 W/m2 CLR
13:44 13.1 °C 3.7 °C 1015.8 hPa SSE 11.1 km/h 13.8 km/h 53 % 0.0 mm 524.0 W/m2 CLR
13:49 13.1 °C 3.7 °C 1015.8 hPa SSE 16.7 km/h 16.7 km/h 53 % 0.0 mm 571.0 W/m2 CLR
13:54 13.1 °C 3.7 °C 1015.5 hPa South 24.1 km/h 24.1 km/h 53 % 0.0 mm 320.0 W/m2 CLR
13:59 12.9 °C 3.6 °C 1015.5 hPa SSW 16.7 km/h 16.7 km/h 53 % 0.0 mm 364.0 W/m2 CLR
14:04 13.0 °C 3.6 °C 1015.5 hPa South 14.8 km/h 14.8 km/h 53 % 0.0 mm 387.0 W/m2 CLR
14:09 12.9 °C 3.6 °C 1015.5 hPa SE 16.7 km/h 16.7 km/h 53 % 0.0 mm 396.0 W/m2 CLR
14:14 13.1 °C 3.7 °C 1015.5 hPa SE 11.1 km/h 11.1 km/h 53 % 0.0 mm 455.0 W/m2 CLR
14:19 13.2 °C 3.5 °C 1015.5 hPa SSE 14.8 km/h 14.8 km/h 52 % 0.0 mm 330.0 W/m2 CLR
14:24 12.9 °C 3.3 °C 1015.5 hPa SSE 17.7 km/h 17.7 km/h 52 % 0.0 mm 253.0 W/m2 CLR
14:30 12.7 °C 3.1 °C 1015.5 hPa South 9.7 km/h 9.7 km/h 52 % 0.0 mm 236.0 W/m2 CLR
14:35 12.6 °C 3.2 °C 1015.1 hPa SSE 9.3 km/h 9.3 km/h 53 % 0.0 mm 260.0 W/m2 CLR
14:40 12.6 °C 3.5 °C 1015.1 hPa SSE 16.7 km/h 16.7 km/h 54 % 0.0 mm 244.0 W/m2 CLR
14:45 12.5 °C 3.4 °C 1015.5 hPa South 14.8 km/h 14.8 km/h 54 % 0.0 mm 237.0 W/m2 CLR
14:50 12.5 °C 3.7 °C 1015.5 hPa SSW 9.3 km/h 9.3 km/h 55 % 0.0 mm 234.0 W/m2 CLR
14:55 12.4 °C 3.9 °C 1015.5 hPa South 8.0 km/h 8.0 km/h 56 % 0.0 mm 223.0 W/m2 CLR
15:00 12.4 °C 3.8 °C 1015.1 hPa South 9.3 km/h 9.3 km/h 56 % 0.0 mm 221.0 W/m2 CLR
15:05 12.3 °C 3.6 °C 1015.1 hPa South 14.5 km/h 14.5 km/h 55 % 0.0 mm 211.0 W/m2 CLR
15:10 12.3 °C 3.8 °C 1015.5 hPa South 14.8 km/h 14.8 km/h 56 % 0.0 mm 195.0 W/m2 CLR
15:15 12.3 °C 3.7 °C 1015.5 hPa South 13.0 km/h 13.0 km/h 56 % 0.0 mm 183.0 W/m2 CLR
15:20 12.3 °C 4.7 °C 1015.5 hPa South 13.0 km/h 13.0 km/h 60 % 0.0 mm 179.0 W/m2 CLR
15:25 12.1 °C 5.7 °C 1015.1 hPa SE 11.3 km/h 11.3 km/h 65 % 0.0 mm 174.0 W/m2 CLR
15:30 11.7 °C 5.6 °C 1015.1 hPa ESE 14.8 km/h 14.8 km/h 66 % 0.0 mm 172.0 W/m2 CLR
15:35 11.6 °C 5.7 °C 1015.1 hPa SE 18.5 km/h 18.5 km/h 67 % 0.0 mm 171.0 W/m2 CLR
15:40 11.6 °C 5.6 °C 1015.1 hPa ESE 12.9 km/h 12.9 km/h 67 % 0.0 mm 163.0 W/m2 CLR
15:45 11.5 °C 5.6 °C 1015.1 hPa ESE 13.0 km/h 13.0 km/h 67 % 0.0 mm 183.0 W/m2 CLR
15:50 11.5 °C 5.6 °C 1015.1 hPa ESE 14.8 km/h 14.8 km/h 67 % 0.0 mm 257.0 W/m2 CLR
15:55 11.6 °C 5.8 °C 1015.1 hPa ESE 14.5 km/h 14.5 km/h 68 % 0.0 mm 279.0 W/m2 CLR
16:00 11.6 °C 5.9 °C 1014.8 hPa ESE 12.9 km/h 12.9 km/h 68 % 0.0 mm 257.0 W/m2 CLR
16:05 11.6 °C 5.8 °C 1014.8 hPa ESE 13.0 km/h 13.0 km/h 68 % 0.0 mm 213.0 W/m2 CLR
16:10 11.5 °C 5.8 °C 1015.1 hPa ESE 13.0 km/h 13.0 km/h 68 % 0.0 mm 193.0 W/m2 CLR
16:15 11.6 °C 6.1 °C 1014.8 hPa ESE 5.6 km/h 5.6 km/h 69 % 0.0 mm 274.0 W/m2 CLR
16:20 11.8 °C 6.1 °C 1015.1 hPa ESE 6.4 km/h 6.4 km/h 68 % 0.0 mm 357.0 W/m2 CLR
16:25 11.9 °C 5.6 °C 1014.8 hPa SE 13.0 km/h 13.0 km/h 65 % 0.0 mm 338.0 W/m2 CLR
16:30 12.1 °C 5.9 °C 1014.8 hPa SE 13.0 km/h 13.0 km/h 66 % 0.0 mm 257.0 W/m2 CLR
16:35 11.9 °C 5.9 °C 1014.8 hPa ESE 7.4 km/h 7.4 km/h 67 % 0.0 mm 209.0 W/m2 CLR
16:40 11.8 °C 5.7 °C 1014.8 hPa ESE 9.3 km/h 9.3 km/h 66 % 0.0 mm 237.0 W/m2 CLR
16:45 11.8 °C 5.7 °C 1014.8 hPa ESE 11.1 km/h 11.1 km/h 66 % 0.0 mm 183.0 W/m2 CLR
16:50 11.8 °C 5.6 °C 1014.8 hPa ESE 13.0 km/h 13.0 km/h 66 % 0.0 mm 176.0 W/m2 CLR
16:55 11.7 °C 5.7 °C 1014.8 hPa ESE 8.0 km/h 8.0 km/h 67 % 0.0 mm 174.0 W/m2 CLR
17:00 11.7 °C 5.7 °C 1014.8 hPa ESE 9.3 km/h 9.3 km/h 67 % 0.0 mm 132.0 W/m2 CLR
17:05 11.6 °C 5.7 °C 1014.8 hPa ESE 13.0 km/h 13.0 km/h 67 % 0.0 mm 174.0 W/m2 CLR
17:10 11.6 °C 5.8 °C 1014.8 hPa ESE 9.3 km/h 9.3 km/h 68 % 0.0 mm 146.0 W/m2 CLR
17:15 11.4 °C 5.5 °C 1014.8 hPa ESE 6.4 km/h 6.4 km/h 67 % 0.0 mm 84.0 W/m2 CLR
17:20 11.3 °C 5.6 °C 1014.8 hPa SE 11.1 km/h 11.1 km/h 68 % 0.0 mm 79.0 W/m2 CLR
17:25 11.3 °C 5.4 °C 1014.8 hPa SE 6.4 km/h 6.4 km/h 67 % 0.0 mm 114.0 W/m2 CLR
17:28 11.3 °C 5.6 °C 1015.1 hPa SE 13.0 km/h 13.0 km/h 68 % 0.0 mm 109.0 W/m2 CLR
17:33 11.1 °C 5.6 °C 1015.1 hPa ESE 7.4 km/h 7.4 km/h 69 % 0.0 mm 100.0 W/m2 CLR
17:38 11.0 °C 5.5 °C 1015.1 hPa ESE 8.0 km/h 8.2 km/h 69 % 0.0 mm 70.0 W/m2 FEW
17:43 10.9 °C 5.4 °C 1015.1 hPa ESE 11.1 km/h 11.1 km/h 69 % 0.0 mm 56.0 W/m2 SCT
17:48 10.8 °C 5.5 °C 1015.1 hPa ESE 9.3 km/h 9.3 km/h 70 % 0.0 mm 58.0 W/m2 SCT
17:53 10.7 °C 5.4 °C 1015.1 hPa SE 8.0 km/h 8.0 km/h 70 % 0.0 mm 47.0 W/m2 SCT
17:58 10.6 °C 5.4 °C 1015.1 hPa SE 4.8 km/h 4.8 km/h 70 % 0.0 mm 35.0 W/m2 BKN
18:00 10.6 °C 5.5 °C 1015.5 hPa SE 6.4 km/h 6.4 km/h 71 % 0.0 mm 30.0 W/m2 BKN
18:05 10.4 °C 5.2 °C 1015.5 hPa SE 9.3 km/h 9.3 km/h 70 % 0.0 mm 23.0 W/m2 BKN
18:09 10.3 °C 5.1 °C 1015.5 hPa SE 9.3 km/h 9.3 km/h 70 % 0.0 mm 19.0 W/m2 BKN
18:11 10.3 °C 5.1 °C 1015.5 hPa ESE 7.4 km/h 7.4 km/h 70 % 0.0 mm 18.0 W/m2 BKN
18:14 10.2 °C 5.2 °C 1015.5 hPa ESE 8.0 km/h 8.0 km/h 71 % 0.0 mm 14.0 W/m2 BKN
18:16 10.2 °C 5.2 °C 1015.5 hPa ESE 9.3 km/h 9.3 km/h 71 % 0.0 mm 14.0 W/m2 BKN
18:21 10.1 °C 5.2 °C 1015.8 hPa ESE 11.1 km/h 11.1 km/h 72 % 0.0 mm 9.0 W/m2 BKN
18:25 9.9 °C 5.1 °C 1015.8 hPa SE 7.4 km/h 7.4 km/h 72 % 0.0 mm 5.0 W/m2 OVC
18:28 9.8 °C 5.2 °C 1015.8 hPa SE 7.4 km/h 7.4 km/h 73 % 0.0 mm 0.0 W/m2 OVC
18:30 9.7 °C 5.1 °C 1015.8 hPa SE 9.3 km/h 9.3 km/h 73 % 0.0 mm 0.0 W/m2 OVC
18:35 9.6 °C 4.9 °C 1015.8 hPa SE 5.6 km/h 5.6 km/h 73 % 0.0 mm 0.0 W/m2 OVC
18:40 9.4 °C 5.0 °C 1015.8 hPa SE 5.6 km/h 5.6 km/h 74 % 0.0 mm 0.0 W/m2 CLR
18:45 9.3 °C 4.9 °C 1015.8 hPa SE 1.9 km/h   74 % 0.0 mm 0.0 W/m2 CLR
18:48 9.2 °C 4.8 °C 1015.8 hPa Calm     74 % 0.0 mm 0.0 W/m2 CLR
18:50 9.1 °C 4.9 °C 1015.8 hPa ESE 5.6 km/h 5.6 km/h 75 % 0.0 mm 0.0 W/m2 CLR
18:55 9.0 °C 4.8 °C 1015.8 hPa Calm     75 % 0.0 mm 0.0 W/m2 CLR
19:00 8.8 °C 4.7 °C 1015.8 hPa SE 5.6 km/h 5.6 km/h 75 % 0.0 mm 0.0 W/m2 CLR
19:05 8.7 °C 4.7 °C 1015.8 hPa Calm     76 % 0.0 mm 0.0 W/m2 CLR
19:10 8.6 °C 4.6 °C 1016.1 hPa Calm     76 % 0.0 mm 0.0 W/m2 CLR
19:15 8.4 °C 4.7 °C 1016.1 hPa SSE 4.8 km/h 4.8 km/h 77 % 0.0 mm 0.0 W/m2 CLR
19:20 8.3 °C 4.6 °C 1016.1 hPa SE 5.6 km/h 5.6 km/h 77 % 0.0 mm 0.0 W/m2 CLR
19:25 8.3 °C 4.7 °C 1016.1 hPa ESE 1.9 km/h 1.9 km/h 78 % 0.0 mm 0.0 W/m2 CLR
19:30 8.2 °C 4.6 °C 1016.5 hPa ESE 5.6 km/h 5.6 km/h 78 % 0.0 mm 0.0 W/m2 CLR
19:35 8.2 °C 4.6 °C 1016.5 hPa SE 5.6 km/h 5.6 km/h 78 % 0.0 mm 0.0 W/m2 CLR
19:40 8.1 °C 4.5 °C 1016.5 hPa SE 3.7 km/h 3.7 km/h 78 % 0.0 mm 0.0 W/m2 CLR
19:45 8.0 °C 4.4 °C 1016.5 hPa Calm     78 % 0.0 mm 0.0 W/m2 CLR
19:50 7.8 °C 4.4 °C 1016.5 hPa ESE 3.7 km/h 3.7 km/h 79 % 0.0 mm 0.0 W/m2 CLR
19:55 7.7 °C 4.3 °C 1016.5 hPa ESE 3.7 km/h 3.7 km/h 79 % 0.0 mm 0.0 W/m2 CLR
20:00 7.4 °C 4.2 °C 1016.5 hPa Calm     80 % 0.0 mm 0.0 W/m2 CLR
20:05 7.3 °C 4.1 °C 1016.8 hPa Calm     80 % 0.0 mm 0.0 W/m2 CLR
20:11 7.2 °C 4.2 °C 1016.5 hPa Calm     81 % 0.0 mm 0.0 W/m2 CLR
20:16 7.1 °C 4.1 °C 1016.5 hPa Calm     81 % 0.0 mm 0.0 W/m2 CLR
20:20 7.1 °C 4.0 °C 1016.8 hPa Calm     81 % 0.0 mm 0.0 W/m2 CLR
20:26 6.9 °C 3.8 °C 1016.5 hPa Calm     81 % 0.0 mm 0.0 W/m2 CLR
20:31 6.8 °C 3.8 °C 1016.8 hPa Calm     81 % 0.0 mm 0.0 W/m2 CLR
20:36 6.8 °C 3.7 °C 1016.8 hPa Calm     81 % 0.0 mm 0.0 W/m2 CLR
20:41 6.7 °C 3.7 °C 1016.8 hPa Calm     81 % 0.0 mm 0.0 W/m2 CLR
20:46 6.7 °C 3.6 °C 1016.8 hPa Calm     81 % 0.0 mm 0.0 W/m2 CLR
20:51 6.6 °C 3.7 °C 1016.8 hPa Calm     82 % 0.0 mm 0.0 W/m2 CLR
20:56 6.4 °C 3.4 °C 1016.8 hPa Calm     81 % 0.0 mm 0.0 W/m2 CLR
21:01 6.2 °C 3.2 °C 1017.2 hPa Calm     81 % 0.0 mm 0.0 W/m2 CLR
21:06 5.8 °C 2.9 °C 1017.2 hPa Calm     82 % 0.0 mm 0.0 W/m2 CLR
21:11 5.6 °C 3.1 °C 1017.2 hPa Calm     84 % 0.0 mm 0.0 W/m2 CLR
21:16 5.5 °C 3.0 °C 1017.2 hPa Calm     84 % 0.0 mm 0.0 W/m2 CLR
21:21 5.3 °C 2.8 °C 1017.2 hPa Calm     84 % 0.0 mm 0.0 W/m2 CLR
21:26 5.1 °C 2.6 °C 1017.5 hPa Calm     84 % 0.0 mm 0.0 W/m2 CLR
21:31 4.9 °C 2.6 °C 1017.5 hPa Calm     85 % 0.0 mm 0.0 W/m2 CLR
21:36 4.9 °C 2.7 °C 1017.5 hPa Calm     86 % 0.0 mm 0.0 W/m2 CLR
21:41 4.9 °C 2.7 °C 1017.5 hPa Calm     86 % 0.0 mm 0.0 W/m2 CLR
21:46 4.7 °C 2.6 °C 1017.5 hPa Calm     86 % 0.0 mm 0.0 W/m2 CLR
21:51 4.4 °C 2.2 °C 1017.5 hPa Calm     85 % 0.0 mm 0.0 W/m2 CLR
21:56 4.2 °C 1.9 °C 1017.5 hPa Calm     85 % 0.0 mm 0.0 W/m2 CLR
22:01 4.0 °C 1.9 °C 1017.5 hPa Calm     86 % 0.0 mm 0.0 W/m2 CLR
22:06 4.0 °C 2.1 °C 1017.5 hPa Calm     87 % 0.0 mm 0.0 W/m2 CLR
22:11 4.0 °C 2.2 °C 1017.5 hPa Calm     88 % 0.0 mm 0.0 W/m2 CLR
22:16 3.7 °C 1.6 °C 1017.5 hPa Calm     86 % 0.0 mm 0.0 W/m2 CLR
22:21 3.4 °C 1.5 °C 1017.5 hPa Calm     87 % 0.0 mm 0.0 W/m2 CLR
22:26 3.2 °C 1.3 °C 1017.5 hPa Calm     87 % 0.0 mm 0.0 W/m2 CLR
22:31 3.1 °C 1.3 °C 1017.5 hPa Calm     88 % 0.0 mm 0.0 W/m2 CLR
22:36 3.1 °C 1.3 °C 1017.5 hPa Calm     88 % 0.0 mm 0.0 W/m2 CLR
22:41 2.9 °C 1.3 °C 1017.8 hPa Calm     89 % 0.0 mm 0.0 W/m2 CLR
22:46 2.8 °C 1.0 °C 1017.8 hPa Calm     88 % 0.0 mm 0.0 W/m2 CLR
22:51 2.8 °C 1.2 °C 1017.8 hPa Calm     89 % 0.0 mm 0.0 W/m2 CLR
22:56 2.8 °C 1.2 °C 1017.8 hPa Calm     89 % 0.0 mm 0.0 W/m2 CLR
23:01 2.6 °C 0.9 °C 1017.8 hPa Calm     89 % 0.0 mm 0.0 W/m2 CLR
23:06 2.3 °C 0.7 °C 1017.8 hPa Calm     89 % 0.0 mm 0.0 W/m2 CLR
23:11 2.1 °C 0.5 °C 1017.8 hPa Calm     89 % 0.0 mm 0.0 W/m2 CLR
23:16 1.9 °C 0.3 °C 1017.8 hPa Calm     89 % 0.0 mm 0.0 W/m2 CLR
23:21 1.9 °C 0.4 °C 1017.8 hPa Calm     90 % 0.0 mm 0.0 W/m2 CLR
23:26 1.9 °C 0.4 °C 1017.8 hPa Calm     90 % 0.0 mm 0.0 W/m2 CLR
23:31 1.8 °C 0.4 °C 1017.8 hPa Calm     90 % 0.0 mm 0.0 W/m2 CLR
23:36 1.8 °C 0.3 °C 1017.8 hPa Calm     90 % 0.0 mm 0.0 W/m2 CLR
23:41 1.7 °C 0.2 °C 1017.8 hPa Calm     90 % 0.0 mm 0.0 W/m2 CLR
23:46 1.6 °C 0.1 °C 1017.8 hPa Calm     90 % 0.0 mm 0.0 W/m2 CLR
23:51 1.6 °C 0.1 °C 1017.8 hPa Calm     90 % 0.0 mm 0.0 W/m2 CLR
23:57 1.4 °C 0.0 °C 1018.2 hPa Calm     90 % 0.0 mm 0.0 W/m2 CLR
Lo Temps de Massalio
Compliments of Weather Underground - 1.25 mb